createdAt,value
2019-06-07T00:00:47.584Z,100886.22
2019-06-07T00:03:28.937Z,100890.27
2019-06-07T00:05:47.689Z,100875.13
2019-06-07T00:08:24.747Z,100866.69
2019-06-07T00:10:47.577Z,100882.80
2019-06-07T00:13:20.175Z,100875.20
2019-06-07T00:15:47.653Z,100878.81
2019-06-07T00:18:23.568Z,100879.28
2019-06-07T00:20:47.464Z,100875.72
2019-06-07T00:23:20.740Z,100874.85
2019-06-07T00:25:47.346Z,100876.69
2019-06-07T00:28:17.287Z,100881.20
2019-06-07T00:30:51.973Z,100885.69
2019-06-07T00:33:23.363Z,100880.83
2019-06-07T00:35:48.874Z,100873.79
2019-06-07T00:38:20.464Z,100882.32
2019-06-07T00:40:49.473Z,100885.02
2019-06-07T00:43:24.810Z,100889.54
2019-06-07T00:45:49.364Z,100883.80
2019-06-07T00:48:27.454Z,100879.84
2019-06-07T00:50:49.254Z,100880.80
2019-06-07T00:53:28.821Z,100888.43
2019-06-07T00:55:49.139Z,100894.74
2019-06-07T00:58:21.849Z,100888.11
2019-06-07T01:00:49.037Z,100888.60
2019-06-07T01:03:20.485Z,100893.55
2019-06-07T01:05:48.934Z,100888.72
2019-06-07T01:08:19.990Z,100878.06
2019-06-07T01:10:53.787Z,100886.59
2019-06-07T01:13:22.754Z,100878.20
2019-06-07T01:15:50.470Z,100885.42
2019-06-07T01:18:37.848Z,100893.03
2019-06-07T01:20:50.298Z,100896.23
2019-06-07T01:24:05.355Z,100897.62
2019-06-07T01:25:50.168Z,100893.69
2019-06-07T01:28:21.419Z,100888.80
2019-06-07T01:30:50.100Z,100893.73
2019-06-07T01:33:20.860Z,100891.58
2019-06-07T01:35:50.007Z,100884.50
2019-06-07T01:38:22.878Z,100889.47
2019-06-07T01:40:49.864Z,100890.86
2019-06-07T01:43:19.524Z,100890.04
2019-06-07T01:45:49.672Z,100882.04
2019-06-07T01:48:22.809Z,100888.31
2019-06-07T01:50:49.543Z,100896.82
2019-06-07T01:53:21.718Z,100898.69
2019-06-07T01:55:49.524Z,100892.96
2019-06-07T01:58:19.846Z,100898.82
2019-06-07T02:00:49.593Z,100900.20
2019-06-07T02:03:21.393Z,100898.89
2019-06-07T02:05:49.491Z,100896.62
2019-06-07T02:08:20.036Z,100895.34
2019-06-07T02:10:49.375Z,100894.44
2019-06-07T02:13:18.790Z,100896.23
2019-06-07T02:15:47.941Z,100902.50
2019-06-07T02:18:17.044Z,100903.02
2019-06-07T02:20:46.117Z,100909.67
2019-06-07T02:23:15.209Z,100904.84
2019-06-07T02:25:50.182Z,100912.84
2019-06-07T02:28:30.021Z,100906.61
2019-06-07T02:30:58.954Z,100905.70
2019-06-07T02:33:16.761Z,100911.03
2019-06-07T02:35:45.804Z,100912.37
2019-06-07T02:38:14.897Z,100919.03
2019-06-07T02:40:43.988Z,100917.72
2019-06-07T02:43:13.064Z,100921.30
2019-06-07T02:45:43.443Z,100923.98
2019-06-07T02:48:13.015Z,100925.30
2019-06-07T02:50:42.310Z,100920.37
2019-06-07T02:53:11.469Z,100918.60
2019-06-07T02:56:33.265Z,100916.84
2019-06-07T02:58:11.378Z,100912.84
2019-06-07T03:01:06.736Z,100913.73
2019-06-07T03:03:24.624Z,100909.72
2019-06-07T03:05:54.283Z,100906.59
2019-06-07T03:08:23.376Z,100902.99
2019-06-07T03:10:53.145Z,100907.44
2019-06-07T03:13:22.662Z,100908.30
2019-06-07T03:15:53.846Z,100900.69
2019-06-07T03:18:41.757Z,100901.52
2019-06-07T03:21:17.902Z,100902.77
2019-06-07T03:23:48.032Z,100888.46
2019-06-07T03:26:18.626Z,100895.97
2019-06-07T03:28:48.216Z,100893.73
2019-06-07T03:31:17.292Z,100903.04
2019-06-07T03:33:46.419Z,100898.57
2019-06-07T03:36:23.691Z,100898.98
2019-06-07T03:38:46.289Z,100906.11
2019-06-07T03:41:15.383Z,100902.50
2019-06-07T03:43:44.493Z,100901.61
2019-06-07T03:46:13.662Z,100899.34
2019-06-07T03:48:42.752Z,100896.19
2019-06-07T03:51:23.979Z,100901.06
2019-06-07T03:53:42.555Z,100899.24
2019-06-07T03:56:12.745Z,100897.00
2019-06-07T03:58:49.744Z,100899.19
2019-06-07T04:01:13.164Z,100908.97
2019-06-07T04:03:50.965Z,100912.05
2019-06-07T04:06:13.078Z,100917.35
2019-06-07T04:08:42.435Z,100918.20
2019-06-07T04:11:11.523Z,100922.19
2019-06-07T04:13:42.975Z,100926.15
2019-06-07T04:16:11.643Z,100927.45
2019-06-07T04:18:42.386Z,100924.76
2019-06-07T04:21:11.579Z,100934.50
2019-06-07T04:23:45.547Z,100931.80
2019-06-07T04:26:11.470Z,100942.89
2019-06-07T04:29:31.125Z,100945.95
2019-06-07T04:31:13.513Z,100947.70
2019-06-07T04:33:43.660Z,100950.76
2019-06-07T04:36:13.779Z,100945.36
2019-06-07T04:38:43.742Z,100951.55
2019-06-07T04:41:13.872Z,100956.39
2019-06-07T04:43:43.872Z,100958.14
2019-06-07T04:46:13.665Z,100958.98
2019-06-07T04:48:45.392Z,100958.94
2019-06-07T04:51:15.590Z,100956.17
2019-06-07T04:53:44.665Z,100960.62
2019-06-07T04:56:13.761Z,100963.30
2019-06-07T04:58:43.145Z,100961.06
2019-06-07T05:01:26.889Z,100961.06
2019-06-07T05:03:44.366Z,100959.26
2019-06-07T05:06:14.807Z,100959.73
2019-06-07T05:08:44.058Z,100965.48
2019-06-07T05:11:13.194Z,100963.66
2019-06-07T05:13:43.839Z,100952.53
2019-06-07T05:16:13.303Z,100944.02
2019-06-07T05:18:43.225Z,100945.30
2019-06-07T05:21:12.541Z,100953.71
2019-06-07T05:24:05.278Z,100951.00
2019-06-07T05:26:12.404Z,100955.46
2019-06-07T05:28:43.058Z,100957.20
2019-06-07T05:31:12.591Z,100952.73
2019-06-07T05:33:43.576Z,100947.34
2019-06-07T05:36:12.454Z,100945.04
2019-06-07T05:38:44.804Z,100952.14
2019-06-07T05:41:12.340Z,100951.19
2019-06-07T05:43:49.503Z,100949.34
2019-06-07T05:46:12.224Z,100949.29
2019-06-07T05:48:42.480Z,100953.72
2019-06-07T05:51:12.038Z,100957.61
2019-06-07T05:53:44.702Z,100963.81
2019-06-07T05:56:12.828Z,100963.72
2019-06-07T05:58:44.575Z,100965.44
2019-06-07T06:01:42.261Z,100966.69
2019-06-07T06:03:46.609Z,100970.58
2019-06-07T06:06:14.738Z,100966.03
2019-06-07T06:08:45.249Z,100959.27
2019-06-07T06:11:14.488Z,100955.56
2019-06-07T06:14:05.968Z,100952.37
2019-06-07T06:16:14.394Z,100948.73
2019-06-07T06:18:47.065Z,100941.00
2019-06-07T06:21:19.346Z,100943.61
2019-06-07T06:23:47.987Z,100950.58
2019-06-07T06:26:15.934Z,100958.02
2019-06-07T06:28:45.448Z,100959.63
2019-06-07T06:31:14.581Z,100946.48
2019-06-07T06:33:45.249Z,100949.86
2019-06-07T06:36:14.471Z,100945.27
2019-06-07T06:38:43.920Z,100945.98
2019-06-07T06:41:16.332Z,100947.19
2019-06-07T06:43:46.752Z,100940.33
2019-06-07T06:46:31.800Z,100937.90
2019-06-07T06:48:51.718Z,100939.92
2019-06-07T06:51:16.805Z,100940.20
2019-06-07T06:53:46.870Z,100931.02
2019-06-07T06:56:16.841Z,100938.41
2019-06-07T06:59:27.306Z,100941.25
2019-06-07T07:01:16.866Z,100942.31
2019-06-07T07:04:06.834Z,100941.16
2019-06-07T07:06:25.905Z,100937.41
2019-06-07T07:08:53.300Z,100941.81
2019-06-07T07:11:23.157Z,100942.48
2019-06-07T07:13:56.198Z,100941.31
2019-06-07T07:16:23.660Z,100949.05
2019-06-07T07:18:54.608Z,100936.16
2019-06-07T07:21:23.559Z,100943.02
2019-06-07T07:24:19.748Z,100944.05
2019-06-07T07:26:23.441Z,100940.61
2019-06-07T07:28:57.249Z,100941.64
2019-06-07T07:31:23.295Z,100930.99
2019-06-07T07:34:29.059Z,100929.79
2019-06-07T07:36:38.899Z,100929.06
2019-06-07T07:39:00.447Z,100914.52
2019-06-07T07:41:25.009Z,100917.58
2019-06-07T07:44:05.488Z,100922.91
2019-06-07T07:46:29.536Z,100919.55
2019-06-07T07:48:56.256Z,100923.34
2019-06-07T07:51:25.389Z,100910.98
2019-06-07T07:54:08.674Z,100903.38
2019-06-07T07:56:25.269Z,100910.12
2019-06-07T07:59:00.214Z,100905.45
2019-06-07T08:01:25.171Z,100906.16
2019-06-07T08:03:56.125Z,100901.90
2019-06-07T08:06:25.153Z,100906.92
2019-06-07T08:08:56.962Z,100904.70
2019-06-07T08:11:25.027Z,100906.58
2019-06-07T08:13:57.238Z,100901.42
2019-06-07T08:16:24.907Z,100912.41
2019-06-07T08:18:58.612Z,100911.91
2019-06-07T08:21:27.353Z,100914.48
2019-06-07T08:24:00.749Z,100903.82
2019-06-07T08:26:27.556Z,100901.63
2019-06-07T08:28:59.736Z,100895.26
2019-06-07T08:31:27.505Z,100892.03
2019-06-07T08:33:58.442Z,100888.89
2019-06-07T08:36:41.283Z,100882.49
2019-06-07T08:39:06.742Z,100883.56
2019-06-07T08:41:29.107Z,100880.02
2019-06-07T08:44:00.585Z,100874.61
2019-06-07T08:46:29.018Z,100873.89
2019-06-07T08:49:02.632Z,100870.97
2019-06-07T08:51:28.851Z,100868.91
2019-06-07T08:54:20.629Z,100862.97
2019-06-07T08:56:28.806Z,100865.88
2019-06-07T08:59:05.533Z,100861.53
2019-06-07T09:01:29.334Z,100862.48
2019-06-07T09:04:02.814Z,100858.25
2019-06-07T09:09:01.998Z,100848.92
2019-06-07T09:11:30.844Z,100846.22
2019-06-07T09:14:02.911Z,100845.67
2019-06-07T09:16:30.755Z,100831.77
2019-06-07T09:19:03.867Z,100834.48
2019-06-07T09:21:30.651Z,100832.61
2019-06-07T09:24:05.486Z,100836.11
2019-06-07T09:26:30.662Z,100832.91
2019-06-07T09:29:01.368Z,100835.73
2019-06-07T09:31:51.360Z,100833.98
2019-06-07T09:34:10.297Z,100834.47
2019-06-07T09:36:32.175Z,100825.44
2019-06-07T09:39:07.411Z,100824.05
2019-06-07T09:41:46.998Z,100830.25
2019-06-07T09:44:19.113Z,100822.83
2019-06-07T09:46:34.535Z,100816.19
2019-06-07T09:49:22.982Z,100806.25
2019-06-07T09:51:34.423Z,100807.77
2019-06-07T09:54:06.881Z,100803.78
2019-06-07T09:56:34.315Z,100809.05
2019-06-07T09:59:06.854Z,100808.97
2019-06-07T10:01:34.227Z,100805.84
2019-06-07T10:04:08.264Z,100804.02
2019-06-07T10:06:34.135Z,100801.56
2019-06-07T10:11:34.102Z,100804.98
2019-06-07T10:14:04.475Z,100802.60
2019-06-07T10:16:46.152Z,100793.27
2019-06-07T10:19:05.613Z,100793.98
2019-06-07T10:21:34.812Z,100796.37
2019-06-07T10:24:03.920Z,100794.70
2019-06-07T10:26:32.996Z,100790.16
2019-06-07T10:29:02.101Z,100786.80
2019-06-07T10:31:31.166Z,100790.06
2019-06-07T10:34:00.562Z,100790.23
2019-06-07T10:36:29.740Z,100787.95
2019-06-07T10:38:58.843Z,100797.14
2019-06-07T10:41:27.927Z,100791.23
2019-06-07T10:43:57.002Z,100786.64
2019-06-07T10:46:26.103Z,100792.59
2019-06-07T10:48:55.211Z,100785.69
2019-06-07T10:51:24.318Z,100785.59
2019-06-07T10:53:53.434Z,100789.33
2019-06-07T10:56:22.549Z,100795.66
2019-06-07T10:58:51.631Z,100789.28
2019-06-07T11:01:20.753Z,100783.98
2019-06-07T11:03:49.830Z,100787.18
2019-06-07T11:06:18.911Z,100787.52
2019-06-07T11:08:47.995Z,100785.89
2019-06-07T11:11:17.111Z,100776.14
2019-06-07T11:13:46.114Z,100770.83
2019-06-07T11:16:15.823Z,100768.34
2019-06-07T11:18:44.900Z,100775.89
2019-06-07T11:21:14.395Z,100768.78
2019-06-07T11:23:43.505Z,100766.37
2019-06-07T11:26:12.618Z,100756.31
2019-06-07T11:28:41.698Z,100762.92
2019-06-07T11:31:11.336Z,100753.47
2019-06-07T11:33:41.065Z,100749.50
2019-06-07T11:36:10.644Z,100753.70
2019-06-07T11:38:39.830Z,100751.77
2019-06-07T11:41:09.384Z,100741.87
2019-06-07T11:43:38.482Z,100734.80
2019-06-07T11:46:08.777Z,100728.98
2019-06-07T11:48:38.049Z,100727.00
2019-06-07T11:51:08.474Z,100726.55
2019-06-07T11:53:37.675Z,100716.93
2019-06-07T11:56:07.869Z,100703.12
2019-06-07T11:58:37.049Z,100708.89
2019-06-07T12:01:07.565Z,100688.81
2019-06-07T12:03:36.811Z,100688.81
2019-06-07T12:06:05.983Z,100688.89
2019-06-07T12:08:35.058Z,100677.96
2019-06-07T12:11:04.184Z,100676.36
2019-06-07T12:13:33.289Z,100679.73
2019-06-07T12:16:02.371Z,100677.03
2019-06-07T12:18:31.449Z,100669.88
2019-06-07T12:21:00.533Z,100675.13
2019-06-07T12:23:29.614Z,100665.80
2019-06-07T12:25:58.714Z,100656.54
2019-06-07T12:28:27.783Z,100656.26
2019-06-07T12:30:56.885Z,100660.72
2019-06-07T12:33:25.974Z,100649.63
2019-06-07T12:35:55.088Z,100653.19
2019-06-07T12:38:24.159Z,100654.73
2019-06-07T12:40:57.433Z,100648.17
2019-06-07T12:43:24.047Z,100645.65
2019-06-07T12:45:53.122Z,100643.63
2019-06-07T12:48:25.545Z,100632.35
2019-06-07T12:50:53.138Z,100632.03
2019-06-07T12:53:26.661Z,100626.49
2019-06-07T12:55:53.016Z,100617.41
2019-06-07T12:58:30.548Z,100614.29
2019-06-07T13:00:53.030Z,100620.08
2019-06-07T13:03:22.566Z,100611.03
2019-06-07T13:05:51.754Z,100605.73
2019-06-07T13:08:22.032Z,100602.75
2019-06-07T13:10:51.402Z,100591.47
2019-06-07T13:13:21.376Z,100585.91
2019-06-07T13:15:51.294Z,100591.27
2019-06-07T13:18:21.755Z,100598.58
2019-06-07T13:20:55.149Z,100589.13
2019-06-07T13:23:22.657Z,100585.16
2019-06-07T13:25:51.768Z,100581.33
2019-06-07T13:28:20.975Z,100595.84
2019-06-07T13:30:50.044Z,100583.55
2019-06-07T13:33:19.136Z,100585.75
2019-06-07T13:35:48.196Z,100581.89
2019-06-07T13:38:26.816Z,100566.23
2019-06-07T13:40:57.056Z,100570.19
2019-06-07T13:43:28.001Z,100560.69
2019-06-07T13:45:57.354Z,100566.16
2019-06-07T13:48:27.759Z,100560.69
2019-06-07T13:50:57.112Z,100558.68
2019-06-07T13:53:26.226Z,100549.45
2019-06-07T13:55:55.280Z,100556.29
2019-06-07T13:58:24.374Z,100566.28
2019-06-07T14:00:53.481Z,100561.92
2019-06-07T14:03:27.862Z,100561.19
2019-06-07T14:05:53.384Z,100559.86
2019-06-07T14:08:23.247Z,100565.86
2019-06-07T14:10:52.391Z,100552.96
2019-06-07T14:13:21.638Z,100542.37
2019-06-07T14:15:50.725Z,100550.97
2019-06-07T14:18:20.390Z,100544.75
2019-06-07T14:20:49.413Z,100545.70
2019-06-07T14:23:18.586Z,100539.95
2019-06-07T14:25:47.696Z,100536.14
2019-06-07T14:28:16.642Z,100531.08
2019-06-07T14:30:45.714Z,100529.23
2019-06-07T14:33:14.838Z,100524.75
2019-06-07T14:35:43.905Z,100520.62
2019-06-07T14:38:13.297Z,100523.67
2019-06-07T14:40:42.401Z,100525.00
2019-06-07T14:43:11.487Z,100520.27
2019-06-07T14:45:40.563Z,100516.58
2019-06-07T14:48:09.663Z,100518.20
2019-06-07T14:50:38.772Z,100512.95
2019-06-07T14:53:07.827Z,100515.43
2019-06-07T14:55:36.898Z,100511.97
2019-06-07T14:58:06.007Z,100512.60
2019-06-07T15:00:44.915Z,100510.47
2019-06-07T15:03:13.926Z,100508.21
2019-06-07T15:05:42.922Z,100506.33
2019-06-07T15:08:12.005Z,100507.56
2019-06-07T15:10:41.074Z,100507.70
2019-06-07T15:13:10.544Z,100503.38
2019-06-07T15:15:39.585Z,100504.78
2019-06-07T15:18:08.686Z,100503.92
2019-06-07T15:20:38.345Z,100501.20
2019-06-07T15:23:08.013Z,100493.47
2019-06-07T15:25:37.173Z,100494.99
2019-06-07T15:28:06.262Z,100489.53
2019-06-07T15:30:35.722Z,100496.91
2019-06-07T15:33:05.014Z,100483.75
2019-06-07T15:35:35.977Z,100499.89
2019-06-07T15:38:05.031Z,100504.65
2019-06-07T15:40:35.220Z,100504.19
2019-06-07T15:43:04.395Z,100495.91
2019-06-07T15:45:33.712Z,100495.27
2019-06-07T15:48:02.967Z,100483.00
2019-06-07T15:50:32.249Z,100487.22
2019-06-07T15:53:01.402Z,100490.06
2019-06-07T15:55:31.982Z,100497.15
2019-06-07T15:58:01.295Z,100497.52
2019-06-07T16:00:31.355Z,100484.87
2019-06-07T16:03:00.533Z,100481.48
2019-06-07T16:05:29.635Z,100484.58
2019-06-07T16:07:58.715Z,100488.25
2019-06-07T16:10:27.796Z,100475.55
2019-06-07T16:13:00.523Z,100482.20
2019-06-07T16:15:27.671Z,100471.00
2019-06-07T16:17:56.769Z,100463.97
2019-06-07T16:20:25.863Z,100470.64
2019-06-07T16:22:54.923Z,100456.23
2019-06-07T16:25:24.009Z,100456.41
2019-06-07T16:27:53.087Z,100455.38
2019-06-07T16:30:22.190Z,100457.24
2019-06-07T16:32:51.278Z,100451.13
2019-06-07T16:35:20.401Z,100445.41
2019-06-07T16:37:52.073Z,100448.30
2019-06-07T16:40:20.274Z,100430.02
2019-06-07T16:42:49.370Z,100424.77
2019-06-07T16:45:18.972Z,100424.20
2019-06-07T16:47:49.733Z,100428.36
2019-06-07T16:50:19.576Z,100423.25
2019-06-07T16:52:48.851Z,100420.64
2019-06-07T16:55:18.528Z,100420.64
2019-06-07T16:57:49.084Z,100426.65
2019-06-07T17:00:19.189Z,100426.25
2019-06-07T17:02:49.110Z,100415.80
2019-06-07T17:05:18.605Z,100408.67
2019-06-07T17:07:48.950Z,100411.11
2019-06-07T17:10:18.601Z,100402.84
2019-06-07T17:12:48.957Z,100377.73
2019-06-07T17:15:19.935Z,100363.98
2019-06-07T17:17:49.367Z,100338.98
2019-06-07T17:20:19.926Z,100319.02
2019-06-07T17:22:49.782Z,100302.73
2019-06-07T17:25:19.798Z,100321.98
2019-06-07T17:27:50.178Z,100311.92
2019-06-07T17:30:19.494Z,100325.72
2019-06-07T17:32:57.627Z,100333.13
2019-06-07T17:35:19.911Z,100326.85
2019-06-07T17:37:49.690Z,100329.59
2019-06-07T17:40:19.913Z,100335.47
2019-06-07T17:42:49.115Z,100331.50
2019-06-07T17:45:18.767Z,100343.44
2019-06-07T17:47:47.874Z,100334.23
2019-06-07T17:50:17.148Z,100332.02
2019-06-07T17:52:46.305Z,100331.86
2019-06-07T17:55:15.796Z,100331.11
2019-06-07T17:57:46.525Z,100319.45
2019-06-07T18:00:33.480Z,100326.95
2019-06-07T18:02:47.130Z,100332.27
2019-06-07T18:05:16.560Z,100333.73
2019-06-07T18:07:47.754Z,100333.38
2019-06-07T18:10:26.583Z,100332.98
2019-06-07T18:12:55.662Z,100321.95
2019-06-07T18:15:36.412Z,100315.97
2019-06-07T18:18:05.595Z,100314.92
2019-06-07T18:20:34.751Z,100305.72
2019-06-07T18:23:03.841Z,100302.25
2019-06-07T18:25:32.912Z,100296.86
2019-06-07T18:28:02.010Z,100298.69
2019-06-07T18:30:31.080Z,100307.53
2019-06-07T18:33:00.179Z,100303.30
2019-06-07T18:35:29.245Z,100304.16
2019-06-07T18:37:59.307Z,100311.61
2019-06-07T18:40:28.408Z,100312.80
2019-06-07T18:42:57.512Z,100322.49
2019-06-07T18:45:26.573Z,100321.34
2019-06-07T18:47:55.791Z,100323.19
2019-06-07T18:50:24.825Z,100318.82
2019-06-07T18:52:54.923Z,100331.82
2019-06-07T18:55:24.070Z,100330.80
2019-06-07T18:57:54.427Z,100333.20
2019-06-07T19:00:25.679Z,100329.34
2019-06-07T19:02:56.128Z,100330.52
2019-06-07T19:05:25.250Z,100338.45
2019-06-07T19:07:54.763Z,100342.75
2019-06-07T19:10:24.427Z,100348.37
2019-06-07T19:12:53.586Z,100356.30
2019-06-07T19:15:23.380Z,100349.34
2019-06-07T19:17:53.897Z,100345.56
2019-06-07T19:20:23.364Z,100354.28
2019-06-07T19:22:52.450Z,100355.47
2019-06-07T19:25:21.634Z,100359.32
2019-06-07T19:27:50.797Z,100358.28
2019-06-07T19:30:22.174Z,100352.34
2019-06-07T19:32:51.510Z,100362.87
2019-06-07T19:35:21.218Z,100360.95
2019-06-07T19:37:51.590Z,100357.66
2019-06-07T19:40:21.069Z,100368.77
2019-06-07T19:42:50.249Z,100365.87
2019-06-07T19:45:34.990Z,100359.88
2019-06-07T19:47:50.584Z,100353.59
2019-06-07T19:50:19.760Z,100365.56
2019-06-07T19:52:48.849Z,100363.53
2019-06-07T19:55:18.037Z,100357.03
2019-06-07T19:57:50.110Z,100358.69
2019-06-07T20:00:18.147Z,100358.02
2019-06-07T20:02:47.266Z,100355.58
2019-06-07T20:05:17.638Z,100351.88
2019-06-07T20:07:46.649Z,100349.34
2019-06-07T20:10:16.184Z,100349.13
2019-06-07T20:12:45.267Z,100348.34
2019-06-07T20:15:27.899Z,100345.91
2019-06-07T20:17:45.558Z,100349.47
2019-06-07T20:20:14.633Z,100359.60
2019-06-07T20:22:43.749Z,100363.84
2019-06-07T20:25:13.242Z,100367.79
2019-06-07T20:27:42.329Z,100369.41
2019-06-07T20:30:12.219Z,100366.09
2019-06-07T20:32:41.325Z,100368.98
2019-06-07T20:35:10.604Z,100367.74
2019-06-07T20:37:39.778Z,100360.75
2019-06-07T20:40:23.398Z,100351.77
2019-06-07T20:42:41.103Z,100352.34
2019-06-07T20:45:10.478Z,100349.32
2019-06-07T20:47:39.540Z,100347.20
2019-06-07T20:50:09.240Z,100336.55
2019-06-07T20:52:38.956Z,100336.34
2019-06-07T20:55:09.913Z,100349.17
2019-06-07T20:57:39.052Z,100356.20
2019-06-07T21:00:20.409Z,100367.76
2019-06-07T21:02:40.386Z,100364.41
2019-06-07T21:05:10.204Z,100366.67
2019-06-07T21:07:39.226Z,100374.95
2019-06-07T21:10:10.446Z,100371.26
2019-06-07T21:12:39.416Z,100372.37
2019-06-07T21:15:14.141Z,100377.48
2019-06-07T21:17:41.330Z,100387.11
2019-06-07T21:20:14.179Z,100376.54
2019-06-07T21:22:41.766Z,100380.67
2019-06-07T21:25:11.849Z,100379.60
2019-06-07T21:27:41.014Z,100385.17
2019-06-07T21:30:11.614Z,100397.91
2019-06-07T21:32:40.869Z,100402.48
2019-06-07T21:35:12.200Z,100393.52
2019-06-07T21:37:41.630Z,100399.00
2019-06-07T21:40:12.092Z,100411.16
2019-06-07T21:42:41.284Z,100410.87
2019-06-07T21:45:11.844Z,100413.57
2019-06-07T21:47:41.138Z,100419.05
2019-06-07T21:50:10.905Z,100426.38
2019-06-07T21:52:40.100Z,100428.59
2019-06-07T21:55:09.437Z,100423.67
2019-06-07T21:57:38.466Z,100437.72
2019-06-07T22:00:11.709Z,100442.75
2019-06-07T22:02:41.322Z,100436.94
2019-06-07T22:05:11.728Z,100428.34
2019-06-07T22:07:40.976Z,100441.06
2019-06-07T22:10:10.196Z,100447.44
2019-06-07T22:12:39.208Z,100441.63
2019-06-07T22:15:28.453Z,100435.36
2019-06-07T22:17:39.236Z,100430.04
2019-06-07T22:20:08.764Z,100429.55
2019-06-07T22:22:37.866Z,100423.77
2019-06-07T22:25:07.518Z,100422.50
2019-06-07T22:27:36.582Z,100427.00
2019-06-07T22:30:06.640Z,100431.70
2019-06-07T22:32:35.744Z,100460.06
2019-06-07T22:35:05.146Z,100567.89
2019-06-07T22:37:34.199Z,100570.78
2019-06-07T22:40:03.407Z,100548.28
2019-06-07T22:42:32.480Z,100580.60
2019-06-07T22:45:01.597Z,100611.98
2019-06-07T22:47:30.672Z,100621.53
2019-06-07T22:49:59.712Z,100629.58
2019-06-07T22:52:28.799Z,100630.08
2019-06-07T22:54:57.892Z,100637.20
2019-06-07T22:57:28.642Z,100636.84
2019-06-07T22:59:57.745Z,100643.98
2019-06-07T23:02:26.855Z,100649.05
2019-06-07T23:04:55.957Z,100676.45
2019-06-07T23:07:24.952Z,100676.24
2019-06-07T23:09:54.043Z,100685.96
2019-06-07T23:12:23.122Z,100683.28
2019-06-07T23:14:52.296Z,100683.10
2019-06-07T23:17:21.373Z,100688.94
2019-06-07T23:19:50.476Z,100693.33
2019-06-07T23:22:20.143Z,100693.09
2019-06-07T23:24:49.242Z,100682.15
2019-06-07T23:27:18.479Z,100676.20
2019-06-07T23:29:47.484Z,100653.17
2019-06-07T23:32:16.762Z,100645.16
2019-06-07T23:34:45.812Z,100642.38
2019-06-07T23:37:15.040Z,100635.95
2019-06-07T23:39:44.055Z,100665.51
2019-06-07T23:42:13.363Z,100707.69
2019-06-07T23:44:42.502Z,100688.92
2019-06-07T23:47:15.165Z,100697.47
2019-06-07T23:49:42.416Z,100716.89
2019-06-07T23:52:11.954Z,100721.13
2019-06-07T23:54:40.988Z,100729.84
2019-06-07T23:57:10.080Z,100737.65
2019-06-07T23:59:39.191Z,100751.61
